sensor_id;sensor_type;location;lat;lon;timestamp;pressure;altitude;pressure_sealevel;temperature;humidity
63405;BME280;49541;57.840;12.306;2023-01-28T00:00:24;101660.78;;;0.89;85.79
63405;BME280;49541;57.840;12.306;2023-01-28T00:05:24;101655.88;;;1.07;85.40
63405;BME280;49541;57.840;12.306;2023-01-28T00:10:24;101650.78;;;0.72;86.88
63405;BME280;49541;57.840;12.306;2023-01-28T00:15:25;101640.22;;;0.75;87.64
63405;BME280;49541;57.840;12.306;2023-01-28T00:20:25;101641.75;;;0.82;88.38
63405;BME280;49541;57.840;12.306;2023-01-28T00:25:25;101622.25;;;0.91;88.03
63405;BME280;49541;57.840;12.306;2023-01-28T00:30:25;101623.84;;;0.97;87.41
63405;BME280;49541;57.840;12.306;2023-01-28T00:35:25;101606.09;;;1.05;87.85
63405;BME280;49541;57.840;12.306;2023-01-28T00:40:25;101594.69;;;0.78;88.14
63405;BME280;49541;57.840;12.306;2023-01-28T00:45:26;101592.28;;;1.00;88.15
63405;BME280;49541;57.840;12.306;2023-01-28T00:50:26;101584.16;;;1.08;87.55
63405;BME280;49541;57.840;12.306;2023-01-28T00:55:26;101570.91;;;1.12;87.19
63405;BME280;49541;57.840;12.306;2023-01-28T01:00:27;101563.94;;;1.11;86.99
63405;BME280;49541;57.840;12.306;2023-01-28T01:05:27;101557.66;;;0.89;87.73
63405;BME280;49541;57.840;12.306;2023-01-28T01:10:28;101550.50;;;0.94;88.27
63405;BME280;49541;57.840;12.306;2023-01-28T01:15:28;101524.19;;;1.23;88.14
63405;BME280;49541;57.840;12.306;2023-01-28T01:20:29;101524.28;;;1.47;85.70
63405;BME280;49541;57.840;12.306;2023-01-28T01:25:32;101522.97;;;1.34;87.05
63405;BME280;49541;57.840;12.306;2023-01-28T01:30:32;101512.97;;;1.45;86.70
63405;BME280;49541;57.840;12.306;2023-01-28T01:35:32;101513.03;;;1.94;85.24
63405;BME280;49541;57.840;12.306;2023-01-28T01:40:33;101500.06;;;1.64;86.81
63405;BME280;49541;57.840;12.306;2023-01-28T01:45:33;101489.81;;;1.56;87.82
63405;BME280;49541;57.840;12.306;2023-01-28T01:50:38;101486.31;;;1.57;88.65
63405;BME280;49541;57.840;12.306;2023-01-28T01:55:40;101493.16;;;1.61;88.98
63405;BME280;49541;57.840;12.306;2023-01-28T02:00:42;101475.50;;;1.65;88.49
63405;BME280;49541;57.840;12.306;2023-01-28T02:05:42;101488.63;;;1.90;88.38
63405;BME280;49541;57.840;12.306;2023-01-28T02:10:42;101480.16;;;1.82;88.73
63405;BME280;49541;57.840;12.306;2023-01-28T02:15:43;101472.06;;;1.88;89.35
63405;BME280;49541;57.840;12.306;2023-01-28T02:26:46;101449.44;;;1.60;90.93
63405;BME280;49541;57.840;12.306;2023-01-28T02:31:17;101452.22;;;1.81;90.58
63405;BME280;49541;57.840;12.306;2023-01-28T02:36:32;101447.28;;;1.95;90.49
63405;BME280;49541;57.840;12.306;2023-01-28T02:41:37;101432.44;;;1.94;90.05
63405;BME280;49541;57.840;12.306;2023-01-28T02:46:39;101426.22;;;1.97;90.36
63405;BME280;49541;57.840;12.306;2023-01-28T03:07:20;101406.19;;;1.94;90.51
63405;BME280;49541;57.840;12.306;2023-01-28T03:12:22;101407.31;;;1.87;90.38
63405;BME280;49541;57.840;12.306;2023-01-28T03:17:48;101393.56;;;1.80;91.24
63405;BME280;49541;57.840;12.306;2023-01-28T03:23:10;101393.22;;;1.90;91.34
63405;BME280;49541;57.840;12.306;2023-01-28T03:28:31;101391.31;;;1.93;90.86
63405;BME280;49541;57.840;12.306;2023-01-28T03:33:51;101382.28;;;2.24;89.34
63405;BME280;49541;57.840;12.306;2023-01-28T03:39:11;101378.53;;;2.30;88.80
63405;BME280;49541;57.840;12.306;2023-01-28T03:44:12;101368.25;;;2.23;88.53
63405;BME280;49541;57.840;12.306;2023-01-28T03:49:30;101366.19;;;2.32;88.08
63405;BME280;49541;57.840;12.306;2023-01-28T03:54:31;101367.81;;;2.34;87.43
63405;BME280;49541;57.840;12.306;2023-01-28T03:59:31;101362.28;;;2.42;87.63
63405;BME280;49541;57.840;12.306;2023-01-28T04:04:31;101349.72;;;2.49;87.34
63405;BME280;49541;57.840;12.306;2023-01-28T04:09:32;101352.34;;;2.49;87.66
63405;BME280;49541;57.840;12.306;2023-01-28T04:14:32;101345.06;;;2.35;88.47
63405;BME280;49541;57.840;12.306;2023-01-28T04:19:32;101344.31;;;2.31;89.10
63405;BME280;49541;57.840;12.306;2023-01-28T04:24:36;101342.56;;;2.30;89.24
63405;BME280;49541;57.840;12.306;2023-01-28T04:29:36;101341.53;;;2.34;88.74
63405;BME280;49541;57.840;12.306;2023-01-28T04:34:36;101340.16;;;2.48;88.27
63405;BME280;49541;57.840;12.306;2023-01-28T04:39:36;101333.16;;;2.46;88.64
63405;BME280;49541;57.840;12.306;2023-01-28T04:44:36;101326.31;;;2.42;88.52
63405;BME280;49541;57.840;12.306;2023-01-28T04:49:37;101319.38;;;2.41;88.86
63405;BME280;49541;57.840;12.306;2023-01-28T04:54:37;101307.13;;;2.40;89.05
63405;BME280;49541;57.840;12.306;2023-01-28T04:59:37;101318.72;;;2.57;88.94
63405;BME280;49541;57.840;12.306;2023-01-28T05:04:37;101300.63;;;2.49;89.38
63405;BME280;49541;57.840;12.306;2023-01-28T05:09:37;101290.59;;;2.59;89.10
63405;BME280;49541;57.840;12.306;2023-01-28T05:14:37;101276.94;;;2.71;88.88
63405;BME280;49541;57.840;12.306;2023-01-28T05:19:38;101273.56;;;2.67;89.16
63405;BME280;49541;57.840;12.306;2023-01-28T05:24:38;101276.41;;;2.63;90.14
63405;BME280;49541;57.840;12.306;2023-01-28T05:29:38;101266.91;;;2.79;89.84
63405;BME280;49541;57.840;12.306;2023-01-28T05:34:38;101271.91;;;2.85;89.92
63405;BME280;49541;57.840;12.306;2023-01-28T05:39:38;101264.81;;;2.87;90.13
63405;BME280;49541;57.840;12.306;2023-01-28T05:44:38;101272.63;;;2.69;91.22
63405;BME280;49541;57.840;12.306;2023-01-28T05:49:39;101279.94;;;2.62;92.57
63405;BME280;49541;57.840;12.306;2023-01-28T05:54:39;101271.38;;;2.77;92.75
63405;BME280;49541;57.840;12.306;2023-01-28T05:59:39;101276.63;;;2.77;93.15
63405;BME280;49541;57.840;12.306;2023-01-28T06:04:39;101281.25;;;2.72;93.69
63405;BME280;49541;57.840;12.306;2023-01-28T06:09:39;101301.97;;;2.80;93.60
63405;BME280;49541;57.840;12.306;2023-01-28T06:14:40;101312.16;;;2.87;92.90
63405;BME280;49541;57.840;12.306;2023-01-28T06:19:40;101301.44;;;2.72;93.74
63405;BME280;49541;57.840;12.306;2023-01-28T06:24:40;101295.84;;;2.59;94.38
63405;BME280;49541;57.840;12.306;2023-01-28T06:29:41;101277.91;;;2.69;94.65
63405;BME280;49541;57.840;12.306;2023-01-28T06:34:41;101299.03;;;2.67;95.00
63405;BME280;49541;57.840;12.306;2023-01-28T06:39:41;101285.88;;;2.67;95.50
63405;BME280;49541;57.840;12.306;2023-01-28T06:44:41;101272.38;;;2.75;95.76
63405;BME280;49541;57.840;12.306;2023-01-28T06:49:41;101271.06;;;2.85;95.57
63405;BME280;49541;57.840;12.306;2023-01-28T06:54:42;101291.63;;;2.96;94.49
63405;BME280;49541;57.840;12.306;2023-01-28T06:59:42;101297.84;;;2.95;94.89
63405;BME280;49541;57.840;12.306;2023-01-28T07:04:42;101286.47;;;3.13;93.90
63405;BME280;49541;57.840;12.306;2023-01-28T07:09:42;101281.63;;;3.04;94.02
63405;BME280;49541;57.840;12.306;2023-01-28T07:14:42;101284.38;;;3.21;93.65
63405;BME280;49541;57.840;12.306;2023-01-28T07:19:43;101292.38;;;3.18;93.36
63405;BME280;49541;57.840;12.306;2023-01-28T07:24:43;101303.00;;;3.17;93.82
63405;BME280;49541;57.840;12.306;2023-01-28T07:29:43;101309.13;;;3.17;94.41
63405;BME280;49541;57.840;12.306;2023-01-28T07:34:43;101281.09;;;3.16;94.19
63405;BME280;49541;57.840;12.306;2023-01-28T07:39:43;101285.84;;;3.08;94.37
63405;BME280;49541;57.840;12.306;2023-01-28T07:44:43;101282.66;;;3.20;93.99
63405;BME280;49541;57.840;12.306;2023-01-28T07:49:44;101283.94;;;3.31;93.41
63405;BME280;49541;57.840;12.306;2023-01-28T07:54:44;101295.00;;;3.18;93.37
63405;BME280;49541;57.840;12.306;2023-01-28T07:59:44;101279.09;;;3.21;93.60
63405;BME280;49541;57.840;12.306;2023-01-28T08:04:45;101290.34;;;3.25;93.31
63405;BME280;49541;57.840;12.306;2023-01-28T08:09:45;101265.31;;;3.16;93.52
63405;BME280;49541;57.840;12.306;2023-01-28T08:14:45;101254.41;;;3.24;93.74
63405;BME280;49541;57.840;12.306;2023-01-28T08:19:45;101242.69;;;3.12;94.25
63405;BME280;49541;57.840;12.306;2023-01-28T08:24:45;101242.66;;;3.31;93.69
63405;BME280;49541;57.840;12.306;2023-01-28T08:29:46;101237.06;;;3.39;94.14
63405;BME280;49541;57.840;12.306;2023-01-28T08:34:46;101222.47;;;3.51;93.37
63405;BME280;49541;57.840;12.306;2023-01-28T08:39:46;101222.56;;;3.49;92.72
63405;BME280;49541;57.840;12.306;2023-01-28T08:44:46;101211.63;;;3.76;92.13
63405;BME280;49541;57.840;12.306;2023-01-28T08:49:47;101230.34;;;3.69;92.60
63405;BME280;49541;57.840;12.306;2023-01-28T08:54:47;101238.16;;;3.90;92.34
63405;BME280;49541;57.840;12.306;2023-01-28T08:59:47;101229.69;;;3.83;91.88
63405;BME280;49541;57.840;12.306;2023-01-28T09:04:47;101210.91;;;3.72;93.37
63405;BME280;49541;57.840;12.306;2023-01-28T09:09:47;101221.56;;;3.88;92.27
63405;BME280;49541;57.840;12.306;2023-01-28T09:14:48;101207.69;;;3.84;92.09
63405;BME280;49541;57.840;12.306;2023-01-28T09:19:48;101193.06;;;3.79;92.31
63405;BME280;49541;57.840;12.306;2023-01-28T09:24:48;101184.19;;;3.80;92.76
63405;BME280;49541;57.840;12.306;2023-01-28T09:29:49;101195.81;;;3.76;92.88
63405;BME280;49541;57.840;12.306;2023-01-28T09:34:49;101194.19;;;3.73;92.98
63405;BME280;49541;57.840;12.306;2023-01-28T09:39:49;101189.59;;;3.59;94.52
63405;BME280;49541;57.840;12.306;2023-01-28T09:44:53;101197.84;;;3.71;94.68
63405;BME280;49541;57.840;12.306;2023-01-28T09:49:54;101201.63;;;3.82;93.57
63405;BME280;49541;57.840;12.306;2023-01-28T09:54:58;101192.88;;;3.82;93.75
63405;BME280;49541;57.840;12.306;2023-01-28T10:00:00;101185.16;;;3.79;94.04
63405;BME280;49541;57.840;12.306;2023-01-28T10:10:06;101188.56;;;3.81;94.70
63405;BME280;49541;57.840;12.306;2023-01-28T10:20:22;101161.34;;;3.80;94.49
63405;BME280;49541;57.840;12.306;2023-01-28T10:25:27;101165.16;;;3.75;95.01
63405;BME280;49541;57.840;12.306;2023-01-28T10:30:30;101155.59;;;3.72;95.55
63405;BME280;49541;57.840;12.306;2023-01-28T10:35:39;101161.34;;;3.80;95.25
63405;BME280;49541;57.840;12.306;2023-01-28T10:40:41;101162.13;;;3.82;95.71
63405;BME280;49541;57.840;12.306;2023-01-28T10:45:44;101173.31;;;3.87;95.36
63405;BME280;49541;57.840;12.306;2023-01-28T10:50:52;101179.91;;;3.96;94.42
63405;BME280;49541;57.840;12.306;2023-01-28T10:55:53;101168.97;;;4.04;93.84
63405;BME280;49541;57.840;12.306;2023-01-28T11:00:59;101167.41;;;4.00;94.16
63405;BME280;49541;57.840;12.306;2023-01-28T11:06:00;101143.91;;;3.95;94.59
63405;BME280;49541;57.840;12.306;2023-01-28T11:11:01;101139.13;;;4.03;94.01
63405;BME280;49541;57.840;12.306;2023-01-28T11:16:02;101126.78;;;4.04;94.61
63405;BME280;49541;57.840;12.306;2023-01-28T11:21:04;101112.75;;;4.21;93.74
63405;BME280;49541;57.840;12.306;2023-01-28T11:26:06;101105.63;;;4.23;93.37
63405;BME280;49541;57.840;12.306;2023-01-28T11:31:08;101093.91;;;4.28;94.00
63405;BME280;49541;57.840;12.306;2023-01-28T11:36:17;101102.91;;;4.24;94.29
63405;BME280;49541;57.840;12.306;2023-01-28T11:41:22;101091.63;;;4.38;94.31
63405;BME280;49541;57.840;12.306;2023-01-28T11:46:35;101085.38;;;4.57;93.28
63405;BME280;49541;57.840;12.306;2023-01-28T11:51:41;101083.56;;;4.90;91.83
63405;BME280;49541;57.840;12.306;2023-01-28T12:06:58;101076.81;;;5.01;92.42
63405;BME280;49541;57.840;12.306;2023-01-28T12:12:12;101086.84;;;4.94;93.44
63405;BME280;49541;57.840;12.306;2023-01-28T12:17:20;101078.19;;;5.08;92.77
63405;BME280;49541;57.840;12.306;2023-01-28T12:38:14;101024.63;;;4.90;95.91
63405;BME280;49541;57.840;12.306;2023-01-28T12:48:23;101001.66;;;5.08;96.29
63405;BME280;49541;57.840;12.306;2023-01-28T12:53:35;100989.97;;;5.12;97.39
63405;BME280;49541;57.840;12.306;2023-01-28T12:58:38;100998.81;;;5.11;98.52
63405;BME280;49541;57.840;12.306;2023-01-28T13:03:47;101006.13;;;5.22;97.44
63405;BME280;49541;57.840;12.306;2023-01-28T13:08:48;101008.13;;;5.32;96.80
63405;BME280;49541;57.840;12.306;2023-01-28T13:13:49;100988.84;;;5.46;96.20
63405;BME280;49541;57.840;12.306;2023-01-28T13:18:49;100981.31;;;5.54;95.77
63405;BME280;49541;57.840;12.306;2023-01-28T13:24:04;100966.00;;;5.90;94.47
63405;BME280;49541;57.840;12.306;2023-01-28T13:29:06;100971.66;;;5.84;94.47
63405;BME280;49541;57.840;12.306;2023-01-28T13:34:07;100961.81;;;5.86;93.93
63405;BME280;49541;57.840;12.306;2023-01-28T13:39:18;100946.91;;;5.70;93.98
63405;BME280;49541;57.840;12.306;2023-01-28T13:44:30;100944.25;;;5.85;93.33
63405;BME280;49541;57.840;12.306;2023-01-28T13:54:37;100928.41;;;5.56;94.53
63405;BME280;49541;57.840;12.306;2023-01-28T14:10:12;100942.09;;;5.77;93.50
63405;BME280;49541;57.840;12.306;2023-01-28T14:15:21;100930.13;;;5.86;92.76
63405;BME280;49541;57.840;12.306;2023-01-28T14:20:29;100942.28;;;5.88;91.54
63405;BME280;49541;57.840;12.306;2023-01-28T14:30:53;100960.38;;;5.96;89.99
63405;BME280;49541;57.840;12.306;2023-01-28T14:35:55;100973.75;;;6.07;89.76
63405;BME280;49541;57.840;12.306;2023-01-28T14:40:55;100975.66;;;6.05;89.00
63405;BME280;49541;57.840;12.306;2023-01-28T14:46:04;100968.50;;;5.91;89.17
63405;BME280;49541;57.840;12.306;2023-01-28T14:51:13;100982.50;;;5.93;89.23
63405;BME280;49541;57.840;12.306;2023-01-28T15:01:34;100979.44;;;6.15;87.56
63405;BME280;49541;57.840;12.306;2023-01-28T15:06:34;100973.69;;;6.65;84.09
63405;BME280;49541;57.840;12.306;2023-01-28T15:11:35;100979.56;;;6.55;83.62
63405;BME280;49541;57.840;12.306;2023-01-28T15:16:38;100978.63;;;6.56;83.01
63405;BME280;49541;57.840;12.306;2023-01-28T15:21:38;100966.53;;;6.52;82.50
63405;BME280;49541;57.840;12.306;2023-01-28T15:26:43;100948.72;;;6.13;82.80
63405;BME280;49541;57.840;12.306;2023-01-28T15:31:46;100946.53;;;5.62;85.74
63405;BME280;49541;57.840;12.306;2023-01-28T15:36:47;100943.63;;;5.81;84.82
63405;BME280;49541;57.840;12.306;2023-01-28T15:41:50;100946.31;;;5.65;84.76
63405;BME280;49541;57.840;12.306;2023-01-28T15:46:51;100952.63;;;6.07;83.62
63405;BME280;49541;57.840;12.306;2023-01-28T15:51:51;100940.63;;;6.16;82.51
63405;BME280;49541;57.840;12.306;2023-01-28T15:56:52;100954.84;;;5.70;84.66
63405;BME280;49541;57.840;12.306;2023-01-28T16:07:11;100953.75;;;6.03;84.14
63405;BME280;49541;57.840;12.306;2023-01-28T16:12:11;100953.47;;;6.08;81.47
63405;BME280;49541;57.840;12.306;2023-01-28T16:17:16;100955.03;;;6.25;80.29
63405;BME280;49541;57.840;12.306;2023-01-28T16:22:18;100947.88;;;6.27;78.94
63405;BME280;49541;57.840;12.306;2023-01-28T16:27:26;100949.47;;;6.29;78.72
63405;BME280;49541;57.840;12.306;2023-01-28T16:32:33;100962.88;;;5.83;80.41
63405;BME280;49541;57.840;12.306;2023-01-28T16:37:33;100957.59;;;5.83;80.41
63405;BME280;49541;57.840;12.306;2023-01-28T16:42:33;100963.50;;;5.58;81.28
63405;BME280;49541;57.840;12.306;2023-01-28T16:47:33;100937.47;;;5.22;82.46
63405;BME280;49541;57.840;12.306;2023-01-28T16:52:34;100947.31;;;5.04;83.87
63405;BME280;49541;57.840;12.306;2023-01-28T16:57:34;100947.34;;;5.18;83.11
63405;BME280;49541;57.840;12.306;2023-01-28T17:02:34;100947.78;;;4.80;84.48
63405;BME280;49541;57.840;12.306;2023-01-28T17:07:34;100961.56;;;4.85;85.91
63405;BME280;49541;57.840;12.306;2023-01-28T17:12:35;100986.34;;;4.83;85.77
63405;BME280;49541;57.840;12.306;2023-01-28T17:17:35;100980.19;;;4.98;84.70
63405;BME280;49541;57.840;12.306;2023-01-28T17:22:35;100966.09;;;5.44;80.60
63405;BME280;49541;57.840;12.306;2023-01-28T17:27:35;100968.34;;;5.66;78.21
63405;BME280;49541;57.840;12.306;2023-01-28T17:32:36;100970.72;;;5.10;79.33
63405;BME280;49541;57.840;12.306;2023-01-28T17:37:36;100968.38;;;4.89;80.94
63405;BME280;49541;57.840;12.306;2023-01-28T17:42:37;100976.50;;;5.17;79.75
63405;BME280;49541;57.840;12.306;2023-01-28T17:47:37;100979.50;;;5.41;77.51
63405;BME280;49541;57.840;12.306;2023-01-28T17:52:37;100987.56;;;5.23;78.74
63405;BME280;49541;57.840;12.306;2023-01-28T17:57:38;100983.78;;;5.58;76.85
63405;BME280;49541;57.840;12.306;2023-01-28T18:02:38;100980.44;;;4.93;78.34
63405;BME280;49541;57.840;12.306;2023-01-28T18:07:38;100968.91;;;4.33;81.84
63405;BME280;49541;57.840;12.306;2023-01-28T18:12:38;100963.69;;;4.79;80.45
63405;BME280;49541;57.840;12.306;2023-01-28T18:17:39;100952.06;;;4.67;79.35
63405;BME280;49541;57.840;12.306;2023-01-28T18:22:39;100958.00;;;4.86;79.42
63405;BME280;49541;57.840;12.306;2023-01-28T18:27:39;100952.13;;;4.97;78.32
63405;BME280;49541;57.840;12.306;2023-01-28T18:32:40;100960.16;;;4.48;79.29
63405;BME280;49541;57.840;12.306;2023-01-28T18:37:40;100981.50;;;4.59;79.11
63405;BME280;49541;57.840;12.306;2023-01-28T18:42:40;100972.97;;;4.38;79.93
63405;BME280;49541;57.840;12.306;2023-01-28T18:47:40;100979.41;;;4.17;79.94
63405;BME280;49541;57.840;12.306;2023-01-28T18:52:40;100971.63;;;3.64;82.36
63405;BME280;49541;57.840;12.306;2023-01-28T18:57:41;100968.63;;;4.21;78.83
63405;BME280;49541;57.840;12.306;2023-01-28T19:02:41;100968.22;;;3.62;80.69
63405;BME280;49541;57.840;12.306;2023-01-28T19:07:41;100963.66;;;3.31;82.58
63405;BME280;49541;57.840;12.306;2023-01-28T19:12:41;100956.97;;;3.76;79.33
63405;BME280;49541;57.840;12.306;2023-01-28T19:17:41;100941.72;;;3.65;79.04
63405;BME280;49541;57.840;12.306;2023-01-28T19:22:42;100946.97;;;3.65;79.88
63405;BME280;49541;57.840;12.306;2023-01-28T19:27:42;100949.53;;;3.67;80.57
63405;BME280;49541;57.840;12.306;2023-01-28T19:32:42;100937.16;;;3.69;81.12
63405;BME280;49541;57.840;12.306;2023-01-28T19:37:42;100920.41;;;4.03;79.81
63405;BME280;49541;57.840;12.306;2023-01-28T19:42:42;100930.41;;;3.81;80.21
63405;BME280;49541;57.840;12.306;2023-01-28T19:47:43;100923.03;;;3.19;82.79
63405;BME280;49541;57.840;12.306;2023-01-28T19:52:44;100927.34;;;3.20;83.27
63405;BME280;49541;57.840;12.306;2023-01-28T19:57:44;100931.63;;;4.07;79.15
63405;BME280;49541;57.840;12.306;2023-01-28T20:02:48;100920.31;;;4.21;76.18
63405;BME280;49541;57.840;12.306;2023-01-28T20:07:48;100914.53;;;3.65;77.65
63405;BME280;49541;57.840;12.306;2023-01-28T20:12:48;100907.72;;;2.93;81.29
63405;BME280;49541;57.840;12.306;2023-01-28T20:17:48;100913.88;;;2.74;81.08
63405;BME280;49541;57.840;12.306;2023-01-28T20:22:49;100917.47;;;2.54;81.82
63405;BME280;49541;57.840;12.306;2023-01-28T20:27:49;100916.78;;;2.32;83.90
63405;BME280;49541;57.840;12.306;2023-01-28T20:32:49;100898.59;;;2.27;84.75
63405;BME280;49541;57.840;12.306;2023-01-28T20:37:49;100878.44;;;1.71;83.93
63405;BME280;49541;57.840;12.306;2023-01-28T20:42:49;100889.59;;;2.14;83.26
63405;BME280;49541;57.840;12.306;2023-01-28T20:47:49;100888.50;;;1.80;84.49
63405;BME280;49541;57.840;12.306;2023-01-28T20:52:50;100889.38;;;2.37;84.10
63405;BME280;49541;57.840;12.306;2023-01-28T20:57:50;100892.00;;;2.37;84.62
63405;BME280;49541;57.840;12.306;2023-01-28T21:02:51;100899.53;;;2.26;82.72
63405;BME280;49541;57.840;12.306;2023-01-28T21:07:51;100883.13;;;2.57;81.72
63405;BME280;49541;57.840;12.306;2023-01-28T21:12:51;100873.34;;;2.78;80.72
63405;BME280;49541;57.840;12.306;2023-01-28T21:17:51;100871.78;;;3.09;77.70
63405;BME280;49541;57.840;12.306;2023-01-28T21:22:52;100872.13;;;2.13;81.67
63405;BME280;49541;57.840;12.306;2023-01-28T21:27:52;100877.03;;;2.01;83.99
63405;BME280;49541;57.840;12.306;2023-01-28T21:32:52;100877.22;;;2.71;81.09
63405;BME280;49541;57.840;12.306;2023-01-28T21:37:53;100873.34;;;2.96;78.58
63405;BME280;49541;57.840;12.306;2023-01-28T21:42:53;100886.75;;;1.99;81.53
63405;BME280;49541;57.840;12.306;2023-01-28T21:47:54;100889.84;;;1.70;83.63
63405;BME280;49541;57.840;12.306;2023-01-28T21:52:54;100883.13;;;2.21;82.64
63405;BME280;49541;57.840;12.306;2023-01-28T21:57:54;100883.19;;;3.27;77.96
63405;BME280;49541;57.840;12.306;2023-01-28T22:03:14;100897.47;;;2.69;77.18
63405;BME280;49541;57.840;12.306;2023-01-28T22:08:14;100888.91;;;2.46;79.64
63405;BME280;49541;57.840;12.306;2023-01-28T22:13:15;100872.19;;;3.01;76.12
63405;BME280;49541;57.840;12.306;2023-01-28T22:18:15;100870.53;;;2.28;78.71
63405;BME280;49541;57.840;12.306;2023-01-28T22:23:15;100882.41;;;2.54;78.83
63405;BME280;49541;57.840;12.306;2023-01-28T22:28:15;100870.81;;;2.21;79.72
63405;BME280;49541;57.840;12.306;2023-01-28T22:33:16;100860.25;;;2.04;81.02
63405;BME280;49541;57.840;12.306;2023-01-28T22:38:16;100842.13;;;1.61;84.20
63405;BME280;49541;57.840;12.306;2023-01-28T22:43:16;100846.31;;;2.40;80.66
63405;BME280;49541;57.840;12.306;2023-01-28T22:48:17;100838.34;;;2.41;80.31
63405;BME280;49541;57.840;12.306;2023-01-28T22:53:18;100831.16;;;2.09;83.39
63405;BME280;49541;57.840;12.306;2023-01-28T22:58:18;100816.22;;;1.73;84.29
63405;BME280;49541;57.840;12.306;2023-01-28T23:03:18;100822.50;;;2.43;83.68
63405;BME280;49541;57.840;12.306;2023-01-28T23:08:19;100826.00;;;2.96;80.45
63405;BME280;49541;57.840;12.306;2023-01-28T23:13:19;100820.97;;;2.56;80.88
63405;BME280;49541;57.840;12.306;2023-01-28T23:18:20;100807.31;;;2.13;82.41
63405;BME280;49541;57.840;12.306;2023-01-28T23:23:46;100801.84;;;2.18;79.98
63405;BME280;49541;57.840;12.306;2023-01-28T23:29:05;100801.13;;;2.14;80.30
63405;BME280;49541;57.840;12.306;2023-01-28T23:34:06;100795.09;;;1.93;80.19
63405;BME280;49541;57.840;12.306;2023-01-28T23:39:06;100789.50;;;1.25;83.09
63405;BME280;49541;57.840;12.306;2023-01-28T23:44:06;100799.97;;;1.64;81.76
63405;BME280;49541;57.840;12.306;2023-01-28T23:49:06;100790.03;;;1.71;82.59
63405;BME280;49541;57.840;12.306;2023-01-28T23:54:08;100778.16;;;1.81;83.58
63405;BME280;49541;57.840;12.306;2023-01-28T23:59:08;100779.84;;;2.01;83.61
